createdAt,value
2023-03-02T03:59:11.238Z,1021.19
2023-03-02T04:00:11.301Z,1021.16
2023-03-02T04:01:11.599Z,1021.23
2023-03-02T04:02:11.573Z,1021.24
2023-03-02T04:03:12.401Z,1021.28
2023-03-02T04:04:13.940Z,1021.30
2023-03-02T04:05:11.951Z,1021.23
2023-03-02T04:06:12.133Z,1021.29
2023-03-02T04:07:12.128Z,1021.28
2023-03-02T04:08:13.558Z,1021.27
2023-03-02T04:09:12.409Z,1021.28
2023-03-02T04:10:13.608Z,1021.28
2023-03-02T04:11:12.731Z,1021.32
2023-03-02T04:12:12.852Z,1021.34
2023-03-02T04:13:14.473Z,1021.35
2023-03-02T04:14:14.023Z,1021.31
2023-03-02T04:15:13.231Z,1021.35
2023-03-02T04:16:14.793Z,1021.35
2023-03-02T04:17:13.950Z,1021.33
2023-03-02T04:18:15.023Z,1021.32
2023-03-02T04:19:13.717Z,1021.33
2023-03-02T04:20:13.868Z,1021.30
2023-03-02T04:21:15.106Z,1021.30
2023-03-02T04:22:15.103Z,1021.29
2023-03-02T04:23:14.477Z,1021.28
2023-03-02T04:24:15.420Z,1021.23
2023-03-02T04:25:14.606Z,1021.23
2023-03-02T04:26:14.835Z,1021.23
2023-03-02T04:27:15.321Z,1021.22
2023-03-02T04:28:17.542Z,1021.19
2023-03-02T04:29:16.512Z,1021.23
2023-03-02T04:30:15.244Z,1021.18
2023-03-02T04:31:16.502Z,1021.24
2023-03-02T04:32:15.594Z,1021.23
2023-03-02T04:33:15.619Z,1021.20
2023-03-02T04:34:15.786Z,1021.20
2023-03-02T04:35:16.928Z,1021.21
2023-03-02T04:36:16.999Z,1021.22
2023-03-02T04:37:16.175Z,1021.19
2023-03-02T04:38:17.662Z,1021.23
2023-03-02T04:39:17.674Z,1021.25
2023-03-02T04:40:17.575Z,1021.24
2023-03-02T04:41:17.677Z,1021.25
2023-03-02T04:42:17.775Z,1021.31
2023-03-02T04:43:18.817Z,1021.28
2023-03-02T04:44:18.846Z,1021.29
2023-03-02T04:45:18.224Z,1021.28
2023-03-02T04:46:18.382Z,1021.31
2023-03-02T04:47:18.970Z,1021.28
2023-03-02T04:48:18.998Z,1021.30
2023-03-02T04:49:17.788Z,1021.31
2023-03-02T04:50:17.944Z,1021.32
2023-03-02T04:51:19.109Z,1021.32
2023-03-02T04:52:18.199Z,1021.29
2023-03-02T04:53:19.446Z,1021.25
2023-03-02T04:54:20.225Z,1021.24
2023-03-02T04:55:19.625Z,1021.21
2023-03-02T04:56:20.275Z,1021.18
2023-03-02T04:57:18.780Z,1021.24
2023-03-02T04:58:18.947Z,1021.20
2023-03-02T04:59:20.369Z,1021.23
2023-03-02T05:00:19.141Z,1021.22
2023-03-02T05:01:20.178Z,1021.23
2023-03-02T05:02:20.404Z,1021.19
2023-03-02T05:03:19.534Z,1021.16
2023-03-02T05:04:21.153Z,1021.21
2023-03-02T05:05:19.812Z,1021.17
2023-03-02T05:06:19.966Z,1021.20
2023-03-02T05:07:20.995Z,1021.16
2023-03-02T05:08:20.511Z,1021.14
2023-03-02T05:09:21.357Z,1021.14
2023-03-02T05:10:21.776Z,1021.20
2023-03-02T05:11:20.515Z,1021.12
2023-03-02T05:12:20.965Z,1021.10
2023-03-02T05:13:20.843Z,1021.10
2023-03-02T05:14:21.923Z,1021.12
2023-03-02T05:15:21.591Z,1021.18
2023-03-02T05:16:21.314Z,1021.11
2023-03-02T05:17:21.810Z,1021.17
2023-03-02T05:18:23.053Z,1021.19
2023-03-02T05:19:23.062Z,1021.14
2023-03-02T05:20:22.355Z,1021.14
2023-03-02T05:23:38.281Z,1021.11
2023-03-02T05:24:39.452Z,1021.11
2023-03-02T05:25:40.518Z,1021.16
2023-03-02T05:26:38.952Z,1021.14
2023-03-02T05:27:38.795Z,1021.20
2023-03-02T05:28:39.890Z,1021.18
2023-03-02T05:29:39.079Z,1021.21
2023-03-02T05:30:40.649Z,1021.19
2023-03-02T05:31:39.379Z,1021.20
2023-03-02T05:32:39.449Z,1021.19
2023-03-02T05:33:40.998Z,1021.16
2023-03-02T05:34:39.750Z,1021.19
2023-03-02T05:35:39.832Z,1021.20
2023-03-02T05:36:41.022Z,1021.15
2023-03-02T05:37:41.058Z,1021.16
2023-03-02T05:38:40.584Z,1021.16
2023-03-02T05:39:41.350Z,1021.20
2023-03-02T05:40:40.584Z,1021.23
2023-03-02T05:41:40.897Z,1021.22
2023-03-02T05:42:40.809Z,1021.24
2023-03-02T05:43:40.928Z,1021.21
2023-03-02T05:44:41.464Z,1021.19
2023-03-02T05:45:42.335Z,1021.26
2023-03-02T05:46:42.277Z,1021.23
2023-03-02T05:47:41.587Z,1021.27
2023-03-02T05:48:43.256Z,1021.34
2023-03-02T05:49:41.707Z,1021.29
2023-03-02T05:50:41.827Z,1021.28
2023-03-02T05:51:43.118Z,1021.30
2023-03-02T05:52:42.625Z,1021.30
2023-03-02T05:53:43.242Z,1021.32
2023-03-02T05:54:42.448Z,1021.34
2023-03-02T05:55:42.540Z,1021.34
2023-03-02T05:56:44.270Z,1021.31
2023-03-02T05:57:44.392Z,1021.28
2023-03-02T05:58:44.583Z,1021.26
2023-03-02T05:59:44.632Z,1021.29
2023-03-02T06:00:43.173Z,1021.32
2023-03-02T06:01:43.465Z,1021.30
2023-03-02T06:02:44.735Z,1021.33
2023-03-02T06:03:43.740Z,1021.32
2023-03-02T06:04:44.611Z,1021.34
2023-03-02T06:05:44.169Z,1021.33
2023-03-02T06:06:44.144Z,1021.33
2023-03-02T06:07:45.008Z,1021.27
2023-03-02T06:08:45.166Z,1021.32
2023-03-02T06:09:44.669Z,1021.29
2023-03-02T06:10:45.730Z,1021.32
2023-03-02T06:11:45.631Z,1021.36
2023-03-02T06:12:44.770Z,1021.37
2023-03-02T06:13:46.093Z,1021.36
2023-03-02T06:14:45.049Z,1021.40
2023-03-02T06:15:45.324Z,1021.37
2023-03-02T06:16:45.343Z,1021.39
2023-03-02T06:17:45.513Z,1021.40
2023-03-02T06:18:46.000Z,1021.43
2023-03-02T06:19:45.776Z,1021.41
2023-03-02T06:20:46.078Z,1021.41
2023-03-02T06:21:46.077Z,1021.41
2023-03-02T06:22:47.437Z,1021.39
2023-03-02T06:23:46.321Z,1021.42
2023-03-02T06:24:46.432Z,1021.42
2023-03-02T06:25:48.083Z,1021.40
2023-03-02T06:26:47.126Z,1021.36
2023-03-02T06:27:46.858Z,1021.40
2023-03-02T06:28:52.880Z,1021.41
2023-03-02T06:29:48.180Z,1021.43
2023-03-02T06:30:47.473Z,1021.46
2023-03-02T06:31:47.661Z,1021.45
2023-03-02T06:32:48.083Z,1021.49
2023-03-02T06:33:48.739Z,1021.50
2023-03-02T06:34:49.472Z,1021.50
2023-03-02T06:35:48.310Z,1021.51
2023-03-02T06:36:48.047Z,1021.47
2023-03-02T06:37:49.477Z,1021.52
2023-03-02T06:38:48.384Z,1021.57
2023-03-02T06:39:48.746Z,1021.58
2023-03-02T06:40:49.979Z,1021.51
2023-03-02T06:41:48.745Z,1021.49
2023-03-02T06:42:49.897Z,1021.57
2023-03-02T06:46:14.610Z,1021.57
2023-03-02T06:47:06.430Z,1021.58
2023-03-02T06:48:06.137Z,1021.53
2023-03-02T06:49:05.948Z,1021.59
2023-03-02T06:50:06.352Z,1021.58
2023-03-02T06:51:06.176Z,1021.53
2023-03-02T06:52:07.295Z,1021.52
2023-03-02T06:53:06.062Z,1021.52
2023-03-02T06:54:06.257Z,1021.52
2023-03-02T06:55:06.721Z,1021.50
2023-03-02T06:56:06.793Z,1021.52
2023-03-02T06:57:06.807Z,1021.57
2023-03-02T06:58:07.693Z,1021.52
2023-03-02T06:59:07.846Z,1021.53
2023-03-02T07:00:07.517Z,1021.53
2023-03-02T07:01:07.475Z,1021.53
2023-03-02T07:02:07.442Z,1021.51
2023-03-02T07:03:07.742Z,1021.56
2023-03-02T07:04:08.438Z,1021.54
2023-03-02T07:05:08.299Z,1021.53
2023-03-02T07:06:08.029Z,1021.50
2023-03-02T07:07:07.931Z,1021.52
2023-03-02T07:08:08.337Z,1021.46
2023-03-02T07:09:08.242Z,1021.58
2023-03-02T07:10:08.420Z,1021.53
2023-03-02T07:11:08.487Z,1021.54
2023-03-02T07:12:08.554Z,1021.60
2023-03-02T07:13:09.340Z,1021.57
2023-03-02T07:14:08.797Z,1021.56
2023-03-02T07:15:08.884Z,1021.56
2023-03-02T07:16:09.386Z,1021.54
2023-03-02T07:17:09.331Z,1021.53
2023-03-02T07:18:09.240Z,1021.54
2023-03-02T07:19:09.504Z,1021.50
2023-03-02T07:20:09.517Z,1021.48
2023-03-02T07:21:09.785Z,1021.49
2023-03-02T07:22:09.918Z,1021.48
2023-03-02T07:23:11.068Z,1021.44
2023-03-02T07:24:09.947Z,1021.43
2023-03-02T07:25:11.005Z,1021.41
2023-03-02T07:26:10.251Z,1021.44
2023-03-02T07:27:10.696Z,1021.41
2023-03-02T07:28:10.802Z,1021.44
2023-03-02T07:29:10.840Z,1021.43
2023-03-02T07:30:10.812Z,1021.38
2023-03-02T07:31:10.996Z,1021.35
2023-03-02T07:32:12.597Z,1021.37
2023-03-02T07:33:11.247Z,1021.36
2023-03-02T07:34:12.286Z,1021.37
2023-03-02T07:35:12.376Z,1021.32
2023-03-02T07:36:11.981Z,1021.36
2023-03-02T07:37:11.767Z,1021.38
2023-03-02T07:38:12.826Z,1021.36
2023-03-02T07:39:12.201Z,1021.36
2023-03-02T07:40:12.098Z,1021.34
2023-03-02T07:41:12.760Z,1021.38
2023-03-02T07:42:12.331Z,1021.31
2023-03-02T07:43:12.736Z,1021.33
2023-03-02T07:44:12.911Z,1021.33
2023-03-02T07:45:14.128Z,1021.27
2023-03-02T07:46:13.809Z,1021.30
2023-03-02T07:47:13.102Z,1021.29
2023-03-02T07:48:15.125Z,1021.28
2023-03-02T07:49:13.264Z,1021.27
2023-03-02T07:50:14.376Z,1021.30
2023-03-02T07:51:14.002Z,1021.29
2023-03-02T07:52:14.123Z,1021.35
2023-03-02T07:53:13.829Z,1021.35
2023-03-02T07:54:13.924Z,1021.33
2023-03-02T07:55:14.983Z,1021.35
2023-03-02T07:56:14.761Z,1021.38
2023-03-02T07:57:14.650Z,1021.39
2023-03-02T07:58:14.681Z,1021.38
2023-03-02T07:59:15.379Z,1021.39
2023-03-02T08:00:16.345Z,1021.39
2023-03-02T08:01:14.865Z,1021.37
2023-03-02T08:02:16.243Z,1021.35
2023-03-02T08:03:15.903Z,1021.35
2023-03-02T08:04:15.442Z,1021.36
2023-03-02T08:05:15.685Z,1021.38
2023-03-02T08:06:15.488Z,1021.36
2023-03-02T08:07:15.668Z,1021.35
2023-03-02T08:08:15.848Z,1021.34
2023-03-02T08:09:16.988Z,1021.37
2023-03-02T08:10:16.145Z,1021.34
2023-03-02T08:11:16.366Z,1021.32
2023-03-02T08:12:16.886Z,1021.33
2023-03-02T08:13:17.148Z,1021.34
2023-03-02T08:14:17.250Z,1021.35
2023-03-02T08:15:17.255Z,1021.30
2023-03-02T08:16:17.165Z,1021.25
2023-03-02T08:17:17.459Z,1021.27
2023-03-02T08:18:17.676Z,1021.30
2023-03-02T08:19:17.860Z,1021.34
2023-03-02T08:20:17.755Z,1021.35
2023-03-02T08:21:22.471Z,1021.35
2023-03-02T08:22:18.740Z,1021.29
2023-03-02T08:25:34.471Z,1021.37
2023-03-02T08:26:34.640Z,1021.40
2023-03-02T08:27:34.554Z,1021.36
2023-03-02T08:28:34.846Z,1021.36
2023-03-02T08:29:35.805Z,1021.29
2023-03-02T08:30:35.572Z,1021.26
2023-03-02T08:31:35.901Z,1021.32
2023-03-02T08:32:35.958Z,1021.25
2023-03-02T08:33:35.777Z,1021.33
2023-03-02T08:34:36.625Z,1021.29
2023-03-02T08:35:36.004Z,1021.27
2023-03-02T08:36:37.386Z,1021.22
2023-03-02T08:37:36.214Z,1021.26
2023-03-02T08:38:36.247Z,1021.23
2023-03-02T08:39:36.377Z,1021.25
2023-03-02T08:40:36.836Z,1021.27
2023-03-02T08:41:36.813Z,1021.25
2023-03-02T08:42:37.802Z,1021.25
2023-03-02T08:43:36.889Z,1021.22
2023-03-02T08:44:37.745Z,1021.26
2023-03-02T08:45:37.526Z,1021.20
2023-03-02T08:46:37.760Z,1021.21
2023-03-02T08:47:37.502Z,1021.24
2023-03-02T08:48:37.742Z,1021.25
2023-03-02T08:49:37.837Z,1021.26
2023-03-02T08:50:37.858Z,1021.20
2023-03-02T08:51:37.781Z,1021.27
2023-03-02T08:52:38.039Z,1021.30
2023-03-02T08:53:38.221Z,1021.24
2023-03-02T08:54:38.245Z,1021.31
2023-03-02T08:55:38.570Z,1021.21
2023-03-02T08:56:38.631Z,1021.26
2023-03-02T08:57:38.727Z,1021.20
2023-03-02T08:58:39.196Z,1021.26
2023-03-02T08:59:39.368Z,1021.24
2023-03-02T09:00:39.164Z,1021.28
2023-03-02T09:01:39.383Z,1021.24
2023-03-02T09:02:39.408Z,1021.25
2023-03-02T09:03:39.896Z,1021.22
2023-03-02T09:04:40.120Z,1021.21
2023-03-02T09:05:39.963Z,1021.25
2023-03-02T09:06:40.411Z,1021.26
2023-03-02T09:07:40.245Z,1021.23
2023-03-02T09:08:40.500Z,1021.23
2023-03-02T09:09:40.388Z,1021.23
2023-03-02T09:10:40.456Z,1021.25
2023-03-02T09:11:40.582Z,1021.26
2023-03-02T09:12:41.363Z,1021.24
2023-03-02T09:13:40.906Z,1021.20
2023-03-02T09:14:42.067Z,1021.24
2023-03-02T09:15:41.188Z,1021.24
2023-03-02T09:16:43.171Z,1021.29
2023-03-02T09:17:41.696Z,1021.26
2023-03-02T09:18:41.721Z,1021.25
2023-03-02T09:19:43.940Z,1021.22
2023-03-02T09:20:41.743Z,1021.29
2023-03-02T09:21:42.137Z,1021.27
2023-03-02T09:22:42.167Z,1021.25
2023-03-02T09:23:42.270Z,1021.26
2023-03-02T09:24:42.594Z,1021.23
2023-03-02T09:25:44.241Z,1021.27
2023-03-02T09:26:42.791Z,1021.24
2023-03-02T09:27:42.923Z,1021.25
2023-03-02T09:28:42.889Z,1021.28
2023-03-02T09:29:43.240Z,1021.26
2023-03-02T09:30:43.324Z,1021.25
2023-03-02T09:31:44.252Z,1021.28
2023-03-02T09:32:44.474Z,1021.28
2023-03-02T09:33:43.589Z,1021.33
2023-03-02T09:34:44.103Z,1021.32
2023-03-02T09:35:43.866Z,1021.27
2023-03-02T09:36:44.489Z,1021.29
2023-03-02T09:37:44.783Z,1021.32
2023-03-02T09:38:44.685Z,1021.35
2023-03-02T09:39:44.540Z,1021.35
2023-03-02T09:40:44.788Z,1021.35
2023-03-02T09:41:44.844Z,1021.32
2023-03-02T09:42:45.203Z,1021.35
2023-03-02T09:43:45.077Z,1021.32
2023-03-02T09:44:45.152Z,1021.38
2023-03-02T09:45:45.616Z,1021.37
2023-03-02T09:46:45.483Z,1021.36
2023-03-02T09:47:45.622Z,1021.40
2023-03-02T09:48:45.703Z,1021.36
2023-03-02T09:52:02.349Z,1021.44
2023-03-02T09:53:02.160Z,1021.46
2023-03-02T09:54:02.468Z,1021.44
2023-03-02T09:55:02.430Z,1021.47
2023-03-02T09:56:02.584Z,1021.50
2023-03-02T09:57:02.686Z,1021.48
2023-03-02T09:58:03.185Z,1021.50
2023-03-02T09:59:03.009Z,1021.48
2023-03-02T10:00:16.479Z,1021.43
2023-03-02T10:01:05.247Z,1021.43
2023-03-02T10:02:03.423Z,1021.47
2023-03-02T10:13:31.208Z,1021.54
2023-03-02T10:14:31.046Z,1021.57
2023-03-02T10:15:31.282Z,1021.56
2023-03-02T10:16:32.627Z,1021.57
2023-03-02T10:17:31.780Z,1021.51
2023-03-02T10:18:31.975Z,1021.56
2023-03-02T10:19:32.013Z,1021.55
2023-03-02T10:20:34.946Z,1021.51
2023-03-02T10:21:32.470Z,1021.49
2023-03-02T10:22:32.165Z,1021.47
2023-03-02T10:23:32.314Z,1021.49
2023-03-02T10:24:32.753Z,1021.52
2023-03-02T10:25:33.864Z,1021.52
2023-03-02T10:26:33.649Z,1021.54
2023-03-02T10:27:33.088Z,1021.50
2023-03-02T10:28:33.724Z,1021.53
2023-03-02T10:29:33.926Z,1021.47
2023-03-02T10:30:34.207Z,1021.46
2023-03-02T10:31:33.366Z,1021.44
2023-03-02T10:32:33.445Z,1021.48
2023-03-02T10:33:33.726Z,1021.35
2023-03-02T10:34:33.951Z,1021.34
2023-03-02T10:35:34.373Z,1021.34
2023-03-02T10:36:34.363Z,1021.35
2023-03-02T10:37:35.684Z,1021.35
2023-03-02T10:38:34.072Z,1021.37
2023-03-02T10:39:34.287Z,1021.35
2023-03-02T10:40:34.275Z,1021.32
2023-03-02T10:41:34.610Z,1021.32
2023-03-02T10:42:34.673Z,1021.34
2023-03-02T10:43:34.809Z,1021.29
2023-03-02T10:44:34.973Z,1021.36
2023-03-02T10:45:35.261Z,1021.33
2023-03-02T10:46:36.322Z,1021.35
2023-03-02T10:47:35.727Z,1021.38
2023-03-02T10:48:40.989Z,1021.37
2023-03-02T10:49:36.081Z,1021.38
2023-03-02T10:50:35.825Z,1021.32
2023-03-02T10:51:35.760Z,1021.31
2023-03-02T10:52:35.919Z,1021.30
2023-03-02T10:53:36.311Z,1021.31
2023-03-02T10:54:36.475Z,1021.29
2023-03-02T10:55:36.636Z,1021.29
2023-03-02T10:56:37.469Z,1021.25
2023-03-02T10:57:37.249Z,1021.27
2023-03-02T10:58:37.750Z,1021.32
2023-03-02T10:59:37.121Z,1021.28
2023-03-02T11:00:37.369Z,1021.27
2023-03-02T11:01:37.509Z,1021.32
2023-03-02T11:02:37.562Z,1021.29
2023-03-02T11:03:37.399Z,1021.27
2023-03-02T11:04:37.856Z,1021.25
2023-03-02T11:05:38.624Z,1021.25
2023-03-02T11:06:38.006Z,1021.29
2023-03-02T11:07:38.214Z,1021.27
2023-03-02T11:08:40.476Z,1021.26
2023-03-02T11:09:38.461Z,1021.28
2023-03-02T11:10:38.728Z,1021.27
2023-03-02T11:11:39.009Z,1021.25
2023-03-02T11:12:39.250Z,1021.23
2023-03-02T11:13:38.914Z,1021.21
2023-03-02T11:14:39.484Z,1021.26
2023-03-02T11:15:39.401Z,1021.19
2023-03-02T11:16:39.303Z,1021.18
2023-03-02T11:17:40.482Z,1021.23
2023-03-02T11:18:40.685Z,1021.19
2023-03-02T11:19:39.826Z,1021.18
2023-03-02T11:20:40.042Z,1021.19
2023-03-02T11:21:40.379Z,1021.23
2023-03-02T11:22:40.492Z,1021.20
2023-03-02T11:23:40.412Z,1021.19
2023-03-02T11:24:40.692Z,1021.21
2023-03-02T11:25:40.907Z,1021.18
2023-03-02T11:26:41.048Z,1021.20
2023-03-02T11:27:40.935Z,1021.21
2023-03-02T11:28:41.967Z,1021.18
2023-03-02T11:29:42.084Z,1021.23
2023-03-02T11:30:41.600Z,1021.20
2023-03-02T11:32:57.453Z,1021.20
2023-03-02T11:34:01.906Z,1021.19
2023-03-02T11:34:56.736Z,1021.21
2023-03-02T11:35:57.098Z,1021.22
2023-03-02T11:36:57.156Z,1021.23
2023-03-02T11:37:57.172Z,1021.17
2023-03-02T11:38:57.294Z,1021.19
2023-03-02T11:39:57.653Z,1021.19
2023-03-02T11:40:57.869Z,1021.23
2023-03-02T11:41:57.955Z,1021.17
2023-03-02T11:42:57.842Z,1021.16
2023-03-02T11:43:58.422Z,1021.20
2023-03-02T11:44:58.552Z,1021.24
2023-03-02T11:45:58.310Z,1021.20
2023-03-02T11:46:58.899Z,1021.20
2023-03-02T11:48:03.119Z,1021.23
2023-03-02T11:48:59.986Z,1021.24
2023-03-02T11:49:58.912Z,1021.21
2023-03-02T11:50:59.064Z,1021.18
2023-03-02T11:51:59.138Z,1021.15
2023-03-02T11:52:59.248Z,1021.20
2023-03-02T11:53:59.857Z,1021.17
2023-03-02T11:54:59.570Z,1021.18
2023-03-02T11:55:59.846Z,1021.15
2023-03-02T11:57:01.491Z,1021.12
2023-03-02T11:59:00.901Z,1021.05
2023-03-02T12:00:00.198Z,1021.08
2023-03-02T12:01:00.488Z,1021.05
2023-03-02T12:02:00.477Z,1021.00
2023-03-02T12:03:00.470Z,1021.01
2023-03-02T12:04:00.807Z,1021.01
2023-03-02T12:05:00.915Z,1021.03
2023-03-02T12:06:00.869Z,1020.97
2023-03-02T12:07:01.048Z,1020.95
2023-03-02T12:08:01.405Z,1020.92
2023-03-02T12:09:01.800Z,1020.93
2023-03-02T12:10:01.461Z,1020.95
2023-03-02T12:11:01.506Z,1020.92
2023-03-02T12:12:02.513Z,1020.86
2023-03-02T12:13:02.126Z,1020.89
2023-03-02T12:14:02.719Z,1020.87
2023-03-02T12:15:02.716Z,1020.82
2023-03-02T12:16:02.422Z,1020.78
2023-03-02T12:17:02.739Z,1020.77
2023-03-02T12:18:03.246Z,1020.81
2023-03-02T12:19:03.074Z,1020.79
2023-03-02T12:20:03.097Z,1020.72
2023-03-02T12:21:03.428Z,1020.67
2023-03-02T12:22:03.605Z,1020.70
2023-03-02T12:23:03.980Z,1020.70
2023-03-02T12:24:04.464Z,1020.64
2023-03-02T12:25:03.870Z,1020.66
2023-03-02T12:26:03.848Z,1020.66
2023-03-02T12:27:04.780Z,1020.62
2023-03-02T12:28:04.434Z,1020.63
2023-03-02T12:29:04.094Z,1020.63
2023-03-02T12:30:04.848Z,1020.64
2023-03-02T12:31:04.523Z,1020.59
2023-03-02T12:32:05.027Z,1020.55
2023-03-02T12:33:05.054Z,1020.60
2023-03-02T12:34:05.431Z,1020.58
2023-03-02T12:35:06.049Z,1020.53
2023-03-02T12:36:05.558Z,1020.59
2023-03-02T12:37:05.559Z,1020.58
2023-03-02T12:38:05.852Z,1020.53
2023-03-02T12:39:07.163Z,1020.53
2023-03-02T12:40:05.871Z,1020.59
2023-03-02T12:41:06.290Z,1020.57
2023-03-02T12:42:06.186Z,1020.58
2023-03-02T12:43:06.563Z,1020.55
2023-03-02T12:44:07.257Z,1020.54
2023-03-02T12:45:06.748Z,1020.54
2023-03-02T12:46:06.807Z,1020.50
2023-03-02T12:47:07.024Z,1020.49
2023-03-02T12:48:07.540Z,1020.46
2023-03-02T12:49:08.769Z,1020.43
2023-03-02T12:50:07.589Z,1020.44
2023-03-02T12:51:07.627Z,1020.38
2023-03-02T12:52:07.839Z,1020.38
2023-03-02T12:53:07.895Z,1020.40
2023-03-02T12:54:07.944Z,1020.37
2023-03-02T12:55:07.856Z,1020.34
2023-03-02T12:58:24.831Z,1020.30
2023-03-02T12:59:33.363Z,1020.29
2023-03-02T13:00:24.560Z,1020.28
2023-03-02T13:01:24.782Z,1020.23
2023-03-02T13:02:25.402Z,1020.19
2023-03-02T13:03:24.843Z,1020.19
2023-03-02T13:04:25.681Z,1020.16
2023-03-02T13:05:25.475Z,1020.14
2023-03-02T13:06:25.706Z,1020.12
2023-03-02T13:07:25.422Z,1020.10
2023-03-02T13:08:25.565Z,1020.16
2023-03-02T13:09:26.023Z,1020.15
2023-03-02T13:10:25.886Z,1020.16
2023-03-02T13:11:26.365Z,1020.13
2023-03-02T13:12:26.154Z,1020.17
2023-03-02T13:13:28.376Z,1020.15
2023-03-02T13:14:26.455Z,1020.14
2023-03-02T13:15:26.720Z,1020.13
2023-03-02T13:16:26.685Z,1020.08
2023-03-02T13:17:26.860Z,1020.13
2023-03-02T13:18:27.011Z,1020.09
2023-03-02T13:19:26.900Z,1020.05
2023-03-02T13:20:27.354Z,1020.07
2023-03-02T13:21:28.014Z,1019.99
2023-03-02T13:22:27.709Z,1019.99
2023-03-02T13:23:27.835Z,1020.00
2023-03-02T13:24:28.116Z,1019.96
2023-03-02T13:25:27.708Z,1019.93
2023-03-02T13:26:27.831Z,1019.97
2023-03-02T13:27:28.959Z,1019.91
2023-03-02T13:28:28.296Z,1019.98
2023-03-02T13:29:28.386Z,1019.95
2023-03-02T13:30:28.802Z,1019.94
2023-03-02T13:31:29.122Z,1019.88
2023-03-02T13:32:30.161Z,1019.90
2023-03-02T13:33:28.939Z,1019.97
2023-03-02T13:34:29.074Z,1019.94
2023-03-02T13:35:29.409Z,1019.91
2023-03-02T13:36:29.685Z,1019.93
2023-03-02T13:37:30.412Z,1019.90
2023-03-02T13:38:29.708Z,1019.90
2023-03-02T13:39:29.806Z,1019.90
2023-03-02T13:40:30.000Z,1019.84
2023-03-02T13:41:30.952Z,1019.87
2023-03-02T13:42:30.358Z,1019.83
2023-03-02T13:43:31.142Z,1019.78
2023-03-02T13:44:31.022Z,1019.86
2023-03-02T13:45:30.662Z,1019.80
2023-03-02T13:46:30.966Z,1019.82
2023-03-02T13:47:31.701Z,1019.81
2023-03-02T13:48:30.982Z,1019.84
2023-03-02T13:49:32.551Z,1019.87
2023-03-02T13:50:31.233Z,1019.83
2023-03-02T13:51:31.630Z,1019.86
2023-03-02T13:52:31.510Z,1019.86
2023-03-02T13:53:31.958Z,1019.86
2023-03-02T13:54:31.740Z,1019.85
2023-03-02T13:55:32.277Z,1019.88
2023-03-02T13:56:32.734Z,1019.84
2023-03-02T13:57:32.517Z,1019.83
2023-03-02T13:58:32.252Z,1019.83
2023-03-02T13:59:32.488Z,1019.80
2023-03-02T14:00:32.708Z,1019.75
2023-03-02T14:01:32.887Z,1019.76
2023-03-02T14:02:33.234Z,1019.75
2023-03-02T14:03:33.171Z,1019.78
2023-03-02T14:04:34.215Z,1019.78
2023-03-02T14:05:33.787Z,1019.78
2023-03-02T14:06:33.877Z,1019.75
2023-03-02T14:07:33.676Z,1019.75
2023-03-02T14:08:34.005Z,1019.76
2023-03-02T14:09:33.887Z,1019.76
2023-03-02T14:10:33.997Z,1019.71
2023-03-02T14:11:34.651Z,1019.76
2023-03-02T14:12:35.065Z,1019.67
2023-03-02T14:13:34.436Z,1019.69
2023-03-02T14:14:34.724Z,1019.70
2023-03-02T14:15:34.977Z,1019.66
2023-03-02T14:16:34.769Z,1019.65
2023-03-02T14:17:35.903Z,1019.63
2023-03-02T14:18:35.233Z,1019.63
2023-03-02T14:19:35.586Z,1019.63
2023-03-02T14:22:52.028Z,1019.56
2023-03-02T14:23:51.576Z,1019.58
2023-03-02T14:24:52.706Z,1019.59
2023-03-02T14:25:53.516Z,1019.55
2023-03-02T14:26:53.140Z,1019.55
2023-03-02T14:27:52.301Z,1019.52
2023-03-02T14:29:04.586Z,1019.51
2023-03-02T14:29:53.579Z,1019.51
2023-03-02T14:30:52.800Z,1019.50
2023-03-02T14:31:52.917Z,1019.49
2023-03-02T14:32:52.812Z,1019.46
2023-03-02T14:33:52.966Z,1019.47
2023-03-02T14:34:53.108Z,1019.49
2023-03-02T14:35:53.250Z,1019.47
2023-03-02T14:36:53.476Z,1019.47
2023-03-02T14:37:54.361Z,1019.51
2023-03-02T14:38:53.526Z,1019.53
2023-03-02T14:39:55.311Z,1019.42
2023-03-02T14:40:54.173Z,1019.50
2023-03-02T14:41:54.818Z,1019.44
2023-03-02T14:42:54.206Z,1019.42
2023-03-02T14:43:55.070Z,1019.39
2023-03-02T14:44:54.718Z,1019.43
2023-03-02T14:45:54.813Z,1019.42
2023-03-02T14:46:54.998Z,1019.41
2023-03-02T14:47:55.445Z,1019.46
2023-03-02T14:48:55.464Z,1019.39
2023-03-02T14:49:55.312Z,1019.41
2023-03-02T14:50:55.262Z,1019.37
2023-03-02T14:51:55.307Z,1019.35
2023-03-02T14:52:55.584Z,1019.34
2023-03-02T14:53:55.775Z,1019.40
2023-03-02T14:54:55.588Z,1019.34
2023-03-02T14:55:55.695Z,1019.36
2023-03-02T14:56:56.208Z,1019.35
2023-03-02T14:57:56.035Z,1019.32
2023-03-02T14:58:56.114Z,1019.36
2023-03-02T14:59:56.574Z,1019.32
2023-03-02T15:00:56.436Z,1019.31
2023-03-02T15:01:58.530Z,1019.30
2023-03-02T15:02:56.883Z,1019.28
2023-03-02T15:03:57.197Z,1019.30
2023-03-02T15:04:57.615Z,1019.25
2023-03-02T15:06:01.550Z,1019.31
2023-03-02T15:06:57.297Z,1019.27
2023-03-02T15:07:58.689Z,1019.32
2023-03-02T15:08:57.750Z,1019.34
2023-03-02T15:09:57.648Z,1019.27
2023-03-02T15:10:58.156Z,1019.24
2023-03-02T15:11:57.948Z,1019.26
2023-03-02T15:12:58.367Z,1019.28
2023-03-02T15:13:58.567Z,1019.28
2023-03-02T15:14:58.585Z,1019.28
2023-03-02T15:15:58.388Z,1019.30
2023-03-02T15:16:59.406Z,1019.26
2023-03-02T15:17:58.798Z,1019.27
2023-03-02T15:18:59.729Z,1019.27
2023-03-02T15:19:58.951Z,1019.29
2023-03-02T15:20:59.359Z,1019.32
2023-03-02T15:21:59.252Z,1019.33
2023-03-02T15:22:59.348Z,1019.32
2023-03-02T15:24:00.040Z,1019.30
2023-03-02T15:25:00.158Z,1019.30
2023-03-02T15:25:59.977Z,1019.28
2023-03-02T15:27:00.879Z,1019.28
2023-03-02T15:28:00.205Z,1019.31
2023-03-02T15:29:01.442Z,1019.35
2023-03-02T15:30:00.849Z,1019.31
2023-03-02T15:31:00.428Z,1019.33
2023-03-02T15:32:00.653Z,1019.35
2023-03-02T15:33:02.006Z,1019.26
2023-03-02T15:34:01.356Z,1019.26
2023-03-02T15:35:01.372Z,1019.25
2023-03-02T15:36:02.008Z,1019.29
2023-03-02T15:37:03.182Z,1019.25
2023-03-02T15:38:01.702Z,1019.29
2023-03-02T15:39:02.371Z,1019.25
2023-03-02T15:40:02.527Z,1019.29
2023-03-02T15:41:02.657Z,1019.28
2023-03-02T15:42:02.029Z,1019.28
2023-03-02T15:45:22.604Z,1019.25
2023-03-02T15:46:19.553Z,1019.22
2023-03-02T15:47:18.521Z,1019.20
2023-03-02T15:48:18.964Z,1019.22
2023-03-02T15:49:19.906Z,1019.18
2023-03-02T15:50:20.607Z,1019.19
2023-03-02T15:51:19.218Z,1019.15
2023-03-02T15:52:19.297Z,1019.13
2023-03-02T15:53:20.543Z,1019.18
2023-03-02T15:54:19.535Z,1019.17
2023-03-02T15:55:19.673Z,1019.21
2023-03-02T15:56:21.275Z,1019.19
2023-03-02T15:57:20.051Z,1019.18
2023-03-02T15:58:21.884Z,1019.15
2023-03-02T15:59:21.690Z,1019.18
2023-03-02T16:00:22.044Z,1019.19
2023-03-02T16:01:22.034Z,1019.14
2023-03-02T16:12:41.488Z,1019.24
2023-03-02T16:13:43.710Z,1019.24
2023-03-02T16:14:41.990Z,1019.22
2023-03-02T16:15:41.668Z,1019.24
2023-03-02T16:16:42.147Z,1019.21
2023-03-02T16:17:42.404Z,1019.27
2023-03-02T16:18:43.661Z,1019.29
2023-03-02T16:19:43.175Z,1019.30
2023-03-02T16:20:43.730Z,1019.35
2023-03-02T16:21:42.545Z,1019.31
2023-03-02T16:22:42.583Z,1019.33
2023-03-02T16:23:42.720Z,1019.36
2023-03-02T16:24:43.049Z,1019.35
2023-03-02T16:25:43.066Z,1019.36
2023-03-02T16:26:43.216Z,1019.38
2023-03-02T16:27:43.438Z,1019.40
2023-03-02T16:28:43.430Z,1019.41
2023-03-02T16:29:44.628Z,1019.40
2023-03-02T16:30:43.749Z,1019.42
2023-03-02T16:31:45.321Z,1019.40
2023-03-02T16:32:44.101Z,1019.42
2023-03-02T16:33:44.129Z,1019.40
2023-03-02T16:34:44.459Z,1019.42
2023-03-02T16:35:45.327Z,1019.44
2023-03-02T16:36:46.311Z,1019.47
2023-03-02T16:37:44.741Z,1019.51
2023-03-02T16:38:45.802Z,1019.49
2023-03-02T16:39:45.107Z,1019.49
2023-03-02T16:40:45.206Z,1019.50
2023-03-02T16:41:46.649Z,1019.56
2023-03-02T16:42:46.256Z,1019.50
2023-03-02T16:43:45.753Z,1019.50
2023-03-02T16:44:45.983Z,1019.52